Time;durP1;ratioP1;P1;durP2;ratioP2;P2;SDS_P1;SDS_P2;PMS_P1;PMS_P2;Temp;Humidity;BMP_temperature;BMP_pressure;BME280_temperature;BME280_humidity;BME280_pressure;Samples;Min_cycle;Max_cycle;Signal;HPM_P1;HPM_P2
2022/05/28 00:00:04;;;;;;;1.90;1.40;;;17.10;89.60;;;;;;10182327;29;20267;-87
2022/05/28 00:05:07;;;;;;;3.13;1.30;;;18.00;90.20;;;;;;10185316;29;20354;-86
2022/05/28 00:10:12;;;;;;;2.47;1.70;;;16.40;89.40;;;;;;10184391;29;20239;-86
2022/05/28 00:15:15;;;;;;;2.80;1.30;;;17.10;91.70;;;;;;10168974;29;20696;-86
2022/05/28 00:20:18;;;;;;;3.27;1.30;;;18.70;86.60;;;;;;10168897;29;20701;-86
2022/05/28 00:25:21;;;;;;;1.40;1.00;;;16.10;87.90;;;;;;10170642;29;20251;-86
2022/05/28 00:30:23;;;;;;;2.23;0.93;;;16.70;91.00;;;;;;10168577;29;20274;-86
2022/05/28 00:35:26;;;;;;;3.63;1.90;;;16.90;83.60;;;;;;10178282;29;20246;-86
2022/05/28 00:40:29;;;;;;;2.50;0.80;;;17.90;87.20;;;;;;10206177;29;20243;-86
2022/05/28 00:45:32;;;;;;;2.47;1.33;;;15.80;86.50;;;;;;10180272;29;20251;-86
2022/05/28 00:50:36;;;;;;;1.20;0.70;;;18.00;88.10;;;;;;10195897;29;20775;-86
2022/05/28 00:55:39;;;;;;;1.27;0.60;;;17.70;81.30;;;;;;10207808;29;20230;-87
2022/05/28 01:00:42;;;;;;;2.20;0.67;;;17.10;82.70;;;;;;10205344;29;20230;-86
2022/05/28 01:05:51;;;;;;;2.73;1.13;;;16.30;90.00;;;;;;10207860;29;20328;-87
2022/05/28 01:11:03;;;;;;;3.07;0.63;;;16.00;92.30;;;;;;10195300;29;20231;-87
2022/05/28 01:16:15;;;;;;;2.67;0.67;;;15.60;85.70;;;;;;10202477;29;20266;-87
2022/05/28 01:21:51;;;;;;;3.43;1.00;;;15.50;90.60;;;;;;10207393;29;20247;-87
2022/05/28 01:27:06;;;;;;;2.33;0.97;;;17.80;86.00;;;;;;10188253;29;20240;-86
2022/05/28 01:32:11;;;;;;;1.80;0.80;;;17.70;88.60;;;;;;10174992;29;20629;-85
2022/05/28 01:37:14;;;;;;;2.53;1.17;;;17.60;87.20;;;;;;10197506;29;20278;-87
2022/05/28 01:42:17;;;;;;;4.43;0.70;;;17.80;85.20;;;;;;10214376;29;20274;-88
2022/05/28 01:47:20;;;;;;;2.60;0.90;;;16.80;87.80;;;;;;10213094;29;20471;-87
2022/05/28 01:52:26;;;;;;;2.33;0.63;;;16.10;88.50;;;;;;10214978;29;20232;-87
2022/05/28 01:57:29;;;;;;;1.30;0.50;;;15.50;91.50;;;;;;10186607;29;20237;-88
2022/05/28 02:02:31;;;;;;;3.97;0.97;;;15.60;90.50;;;;;;10184719;29;20634;-87
2022/05/28 02:07:34;;;;;;;1.47;0.60;;;16.20;85.00;;;;;;10178552;29;20263;-87
2022/05/28 02:13:11;;;;;;;3.20;1.07;;;17.30;86.00;;;;;;10173027;29;20235;-86
2022/05/28 02:18:24;;;;;;;2.77;1.30;;;14.80;89.50;;;;;;10173967;29;20358;-87
2022/05/28 02:23:47;;;;;;;2.07;0.43;;;16.10;91.60;;;;;;10165563;29;20242;-88
2022/05/28 02:28:50;;;;;;;2.97;0.87;;;14.00;89.20;;;;;;10213934;29;20280;-87
2022/05/28 02:33:53;;;;;;;1.47;0.90;;;17.20;90.50;;;;;;10187120;29;20235;-87
2022/05/28 02:38:56;;;;;;;1.67;1.23;;;16.60;89.50;;;;;;10173600;29;20316;-87
2022/05/28 02:43:59;;;;;;;2.83;0.80;;;14.70;92.80;;;;;;10178330;29;20259;-87
2022/05/28 02:49:01;;;;;;;2.70;1.03;;;16.40;90.80;;;;;;10174072;29;20690;-87
2022/05/28 02:54:04;;;;;;;2.83;0.63;;;16.20;83.40;;;;;;10173485;29;20294;-88
2022/05/28 02:59:06;;;;;;;5.30;1.33;;;17.70;85.20;;;;;;10173803;29;20232;-87
2022/05/28 03:04:09;;;;;;;2.57;0.90;;;17.10;81.70;;;;;;10176593;29;20664;-87
2022/05/28 03:09:12;;;;;;;3.03;1.30;;;15.10;89.80;;;;;;10183622;29;20269;-87
2022/05/28 03:14:17;;;;;;;3.17;1.07;;;15.60;90.40;;;;;;10188928;29;20235;-87
2022/05/28 03:19:19;;;;;;;2.33;1.07;;;17.30;82.60;;;;;;10172609;29;20235;-87
2022/05/28 03:24:22;;;;;;;1.13;0.93;;;17.50;87.90;;;;;;10204477;29;20262;-87
2022/05/28 03:29:25;;;;;;;3.70;1.27;;;17.20;86.00;;;;;;10210654;29;20238;-87
2022/05/28 03:34:28;;;;;;;2.77;1.67;;;16.50;86.20;;;;;;10207897;29;20266;-87
2022/05/28 03:39:30;;;;;;;2.13;1.10;;;16.50;86.30;;;;;;10211729;29;20242;-86
2022/05/28 03:44:33;;;;;;;2.83;1.30;;;17.50;86.30;;;;;;10204947;29;20376;-87
2022/05/28 03:49:39;;;;;;;7.63;1.00;;;15.90;84.60;;;;;;10169640;29;20211;-86
2022/05/28 03:54:45;;;;;;;1.77;0.97;;;17.10;80.70;;;;;;10169292;29;20232;-86
2022/05/28 03:59:47;;;;;;;1.97;1.00;;;17.10;82.00;;;;;;10172631;29;20207;-87
2022/05/28 04:04:50;;;;;;;2.60;1.10;;;17.90;83.90;;;;;;10201793;29;20271;-87
2022/05/28 04:09:52;;;;;;;3.63;1.70;;;18.50;81.80;;;;;;10170751;29;20294;-88
2022/05/28 04:14:55;;;;;;;1.27;1.10;;;18.90;79.70;;;;;;10169324;29;20298;-87
2022/05/28 04:19:57;;;;;;;1.33;1.00;;;18.40;81.00;;;;;;10169893;29;20716;-88
2022/05/28 04:25:00;;;;;;;1.50;1.00;;;18.70;78.90;;;;;;10198956;29;20262;-88
2022/05/28 04:30:03;;;;;;;3.60;1.30;;;19.10;79.30;;;;;;10166279;29;20250;-87
2022/05/28 04:35:09;;;;;;;1.07;0.97;;;18.50;80.00;;;;;;10167356;29;20242;-88
2022/05/28 04:40:12;;;;;;;4.10;1.27;;;18.90;79.60;;;;;;10168786;29;20239;-88
2022/05/28 04:45:15;;;;;;;6.47;1.70;;;19.10;78.10;;;;;;10170563;29;20291;-87
2022/05/28 04:50:17;;;;;;;1.53;1.30;;;18.20;81.10;;;;;;10170540;29;20239;-87
2022/05/28 04:55:20;;;;;;;4.63;1.30;;;17.40;84.60;;;;;;10167821;29;20258;-88
2022/05/28 05:00:25;;;;;;;2.23;1.10;;;18.30;80.10;;;;;;10166682;29;20731;-88
2022/05/28 05:05:27;;;;;;;1.47;1.17;;;18.20;80.00;;;;;;10162694;29;20664;-88
2022/05/28 05:10:30;;;;;;;4.73;1.20;;;18.00;81.20;;;;;;10168041;29;20295;-88
2022/05/28 05:15:33;;;;;;;2.93;1.10;;;18.20;79.20;;;;;;10165587;29;20610;-88
2022/05/28 05:20:35;;;;;;;3.83;1.50;;;17.40;81.20;;;;;;10167177;29;20628;-88
2022/05/28 05:25:38;;;;;;;3.33;1.60;;;18.10;81.80;;;;;;10166918;29;20263;-88
2022/05/28 05:30:40;;;;;;;4.20;1.10;;;18.50;80.30;;;;;;10168604;29;20231;-88
2022/05/28 05:35:43;;;;;;;3.70;1.30;;;16.80;81.60;;;;;;10181533;29;20271;-88
2022/05/28 05:40:45;;;;;;;4.83;1.20;;;18.00;80.20;;;;;;10167327;29;20659;-89
2022/05/28 05:46:00;;;;;;;2.63;1.37;;;18.90;79.30;;;;;;10174897;29;20279;-88
2022/05/28 05:51:12;;;;;;;3.93;0.80;;;18.90;78.30;;;;;;10198475;29;20239;-88
2022/05/28 05:56:14;;;;;;;3.57;1.43;;;17.40;79.00;;;;;;10179737;29;20240;-89
2022/05/28 06:01:18;;;;;;;3.77;0.93;;;18.00;77.60;;;;;;10168146;29;20235;-88
2022/05/28 06:06:21;;;;;;;5.03;1.53;;;17.00;77.90;;;;;;10165638;29;20295;-88
2022/05/28 06:11:24;;;;;;;2.93;2.13;;;17.50;82.40;;;;;;10168876;29;20238;-88
2022/05/28 06:16:26;;;;;;;2.43;1.60;;;17.00;83.90;;;;;;10182733;29;20719;-89
2022/05/28 06:21:29;;;;;;;3.50;1.50;;;15.50;88.00;;;;;;10174617;29;20243;-88
2022/05/28 06:26:31;;;;;;;3.37;1.80;;;18.20;81.70;;;;;;10191176;29;20672;-88
2022/05/28 06:31:34;;;;;;;2.80;1.80;;;17.50;76.30;;;;;;10190094;29;20239;-89
2022/05/28 06:36:37;;;;;;;3.30;1.20;;;17.60;82.70;;;;;;10184657;29;20283;-88
2022/05/28 06:41:39;;;;;;;1.63;1.43;;;17.30;76.50;;;;;;10171976;29;20327;-87
2022/05/28 06:46:42;;;;;;;2.13;1.30;;;17.30;79.70;;;;;;10170591;29;20318;-88
2022/05/28 06:51:44;;;;;;;3.97;1.00;;;16.70;85.80;;;;;;10171557;29;20673;-88
2022/05/28 06:56:47;;;;;;;2.43;1.43;;;18.40;78.00;;;;;;10155878;29;20756;-87
2022/05/28 07:01:49;;;;;;;5.60;1.87;;;16.20;84.50;;;;;;10179750;29;20235;-88
2022/05/28 07:06:52;;;;;;;5.67;1.10;;;15.20;80.20;;;;;;10175335;29;20313;-87
2022/05/28 07:11:55;;;;;;;2.47;1.27;;;17.60;77.90;;;;;;10171056;29;20696;-87
2022/05/28 07:16:57;;;;;;;3.27;1.97;;;17.50;82.10;;;;;;10171378;29;20247;-86
2022/05/28 07:22:00;;;;;;;2.47;1.20;;;18.40;80.70;;;;;;10170904;29;20941;-87
2022/05/28 07:27:02;;;;;;;6.27;1.60;;;19.00;75.10;;;;;;10165671;29;20328;-87
2022/05/28 07:32:06;;;;;;;7.10;1.67;;;16.10;79.70;;;;;;10186374;29;20704;-87
2022/05/28 07:37:08;;;;;;;3.40;1.70;;;17.90;80.50;;;;;;10171976;29;20283;-88
2022/05/28 07:42:11;;;;;;;2.67;2.00;;;19.00;77.70;;;;;;10171133;29;20739;-86
2022/05/28 07:47:13;;;;;;;2.83;1.33;;;17.90;79.50;;;;;;10172894;29;20302;-86
2022/05/28 07:52:17;;;;;;;3.50;1.37;;;18.80;77.10;;;;;;10189591;29;20235;-87
2022/05/28 07:57:19;;;;;;;2.47;1.63;;;19.30;75.60;;;;;;10170284;29;20236;-87
2022/05/28 08:02:21;;;;;;;2.60;1.30;;;18.40;77.60;;;;;;10168689;29;20236;-86
2022/05/28 08:07:24;;;;;;;3.17;1.50;;;17.70;79.70;;;;;;10170582;29;20330;-87
2022/05/28 08:12:26;;;;;;;4.33;1.87;;;18.60;77.80;;;;;;10170506;29;20347;-85
2022/05/28 08:17:31;;;;;;;1.97;1.63;;;18.50;77.90;;;;;;10170607;29;20271;-85
2022/05/28 08:27:55;;;;;;;4.83;1.50;;;18.10;80.00;;;;;;10198079;29;20709;-86
2022/05/28 08:32:57;;;;;;;2.40;1.23;;;18.30;78.60;;;;;;10197446;29;20235;-84
2022/05/28 08:38:20;;;;;;;4.23;2.20;;;18.70;76.80;;;;;;10200154;29;20772;-84
2022/05/28 08:43:27;;;;;;;2.40;1.20;;;17.10;78.50;;;;;;10199938;29;20256;-85
2022/05/28 08:48:52;;;;;;;3.67;1.33;;;17.90;79.20;;;;;;10181145;29;20298;-85
2022/05/28 08:54:17;;;;;;;2.47;0.87;;;18.70;74.70;;;;;;10167736;29;20250;-85
2022/05/28 08:59:38;;;;;;;2.77;1.63;;;18.60;75.30;;;;;;10167598;29;20719;-85
2022/05/28 09:04:42;;;;;;;1.87;1.27;;;18.70;74.60;;;;;;10167864;29;20664;-85
2022/05/28 09:09:47;;;;;;;2.67;1.27;;;18.70;76.30;;;;;;10167944;29;20235;-87
2022/05/28 09:14:49;;;;;;;1.77;0.90;;;18.40;77.70;;;;;;10171410;29;20263;-87
2022/05/28 09:20:06;;;;;;;6.20;2.00;;;17.10;75.70;;;;;;10192343;29;20229;-87
2022/05/28 09:25:10;;;;;;;6.57;2.30;;;17.10;76.00;;;;;;10187832;29;20253;-86
2022/05/28 09:30:20;;;;;;;3.63;1.53;;;17.00;77.50;;;;;;10194450;29;20230;-86
2022/05/28 09:35:52;;;;;;;4.93;1.77;;;16.70;81.10;;;;;;10207512;29;20643;-87
2022/05/28 09:41:04;;;;;;;2.23;0.63;;;18.50;77.40;;;;;;9516138;29;10000809;-87
2022/05/28 09:46:28;;;;;;;2.23;0.80;;;18.50;67.40;;;;;;10201020;29;20265;-87
2022/05/28 09:51:33;;;;;;;10.37;2.67;;;15.80;77.00;;;;;;10210199;29;20240;-87
2022/05/28 09:56:38;;;;;;;5.27;2.57;;;16.60;78.50;;;;;;10209438;29;20286;-86
2022/05/28 10:02:07;;;;;;;5.03;2.20;;;17.40;81.30;;;;;;10200620;29;20234;-86
2022/05/28 10:07:10;;;;;;;2.67;1.03;;;18.20;78.00;;;;;;10171077;29;20262;-85
2022/05/28 10:12:16;;;;;;;5.10;3.27;;;17.30;73.40;;;;;;10171954;29;20235;-86
2022/05/28 10:17:24;;;;;;;1.87;1.03;;;17.70;74.30;;;;;;10173581;29;20672;-86
2022/05/28 10:22:29;;;;;;;4.90;1.20;;;18.50;72.90;;;;;;10173779;29;20231;-86
2022/05/28 10:27:47;;;;;;;12.27;3.50;;;16.90;73.30;;;;;;10173608;29;20258;-87
2022/05/28 10:32:51;;;;;;;7.70;3.20;;;18.20;83.30;;;;;;10180134;29;20294;-86
2022/05/28 10:38:14;;;;;;;6.70;1.23;;;17.50;79.10;;;;;;10172806;29;20235;-86
2022/05/28 10:43:38;;;;;;;6.17;1.20;;;17.00;82.60;;;;;;10171977;29;20233;-86
2022/05/28 10:49:06;;;;;;;11.33;3.37;;;15.90;76.90;;;;;;10167616;29;20227;-87
2022/05/28 10:54:32;;;;;;;4.60;2.03;;;18.70;85.50;;;;;;10167452;29;20227;-88
2022/05/28 10:59:53;;;;;;;5.87;2.20;;;19.00;81.40;;;;;;10170617;29;20242;-91
2022/05/28 11:05:08;;;;;;;6.47;1.07;;;19.20;72.30;;;;;;10200541;28;20262;-94
2022/05/28 11:10:13;;;;;;;4.27;0.90;;;18.20;68.80;;;;;;10185749;29;20302;-90
2022/05/28 11:15:32;;;;;;;3.00;1.67;;;17.80;68.00;;;;;;10205870;29;20231;-92
2022/05/28 11:21:03;;;;;;;5.13;0.63;;;16.70;69.30;;;;;;10173772;29;20685;-94
2022/05/28 11:26:28;;;;;;;4.83;1.07;;;16.40;69.10;;;;;;10177356;29;20263;-92
2022/05/28 11:31:46;;;;;;;2.20;0.97;;;16.10;70.40;;;;;;10187498;29;20200;-92
2022/05/28 11:37:04;;;;;;;6.70;0.93;;;16.80;69.40;;;;;;10201453;29;20261;-90
2022/05/28 11:42:31;;;;;;;4.63;1.63;;;16.90;69.10;;;;;;10183214;29;20202;-90
2022/05/28 11:47:44;;;;;;;6.13;1.03;;;16.00;71.00;;;;;;10191352;29;20700;-86
2022/05/28 11:52:53;;;;;;;4.73;0.70;;;15.60;72.70;;;;;;10178451;29;20239;-86
2022/05/28 11:58:20;;;;;;;2.37;0.80;;;16.50;70.60;;;;;;10169002;29;20215;-86
2022/05/28 12:03:27;;;;;;;6.73;1.13;;;15.60;73.20;;;;;;10169081;29;20686;-86
2022/05/28 12:08:57;;;;;;;4.17;0.73;;;16.70;71.40;;;;;;10170797;29;20298;-86
2022/05/28 12:14:04;;;;;;;5.27;0.97;;;16.30;72.10;;;;;;10164140;29;20268;-87
2022/05/28 12:19:15;;;;;;;3.10;1.27;;;15.20;77.80;;;;;;10168603;29;20239;-86
2022/05/28 12:24:18;;;;;;;3.33;1.30;;;15.40;77.80;;;;;;10168592;29;20251;-87
2022/05/28 12:30:02;;;;;;;4.33;1.10;;;15.70;79.30;;;;;;10169572;29;20246;-87
2022/05/28 12:35:24;;;;;;;3.57;0.90;;;12.90;97.70;;;;;;10145112;29;20207;-86
2022/05/28 12:40:56;;;;;;;3.30;1.07;;;13.20;99.90;;;;;;10169162;29;20757;-87
2022/05/28 12:46:16;;;;;;;1.30;0.80;;;14.40;95.80;;;;;;10169187;29;20247;-87
2022/05/28 12:51:33;;;;;;;2.50;1.27;;;15.70;93.30;;;;;;10168139;29;20655;-87
2022/05/28 12:56:36;;;;;;;3.77;1.50;;;14.20;99.90;;;;;;10167632;29;20203;-87
2022/05/28 13:01:54;;;;;;;2.30;1.40;;;13.10;99.90;;;;;;10167031;29;20239;-87
2022/05/28 13:07:00;;;;;;;3.90;1.40;;;13.40;99.90;;;;;;10166701;29;20330;-87
2022/05/28 13:12:20;;;;;;;3.10;0.97;;;13.30;99.90;;;;;;10167665;29;20203;-87
2022/05/28 13:17:35;;;;;;;1.47;0.80;;;15.10;99.90;;;;;;10198460;29;20234;-88
2022/05/28 13:22:38;;;;;;;3.70;0.90;;;16.20;95.50;;;;;;10166321;29;20266;-87
2022/05/28 13:28:02;;;;;;;2.93;1.40;;;17.20;93.80;;;;;;10166457;29;20247;-88
2022/05/28 13:33:08;;;;;;;2.00;1.80;;;17.90;91.60;;;;;;10183330;29;20231;-87
2022/05/28 13:38:14;;;;;;;1.47;1.30;;;18.30;88.60;;;;;;10167544;29;20246;-87
2022/05/28 13:43:23;;;;;;;4.00;1.50;;;17.30;91.10;;;;;;10167762;29;20290;-88
2022/05/28 13:48:26;;;;;;;2.57;1.30;;;17.50;91.40;;;;;;10167775;29;20263;-89
2022/05/28 13:53:34;;;;;;;4.17;1.50;;;17.50;91.90;;;;;;10150233;29;20243;-88
2022/05/28 13:58:43;;;;;;;5.83;1.53;;;17.20;94.10;;;;;;10166717;29;20235;-88
2022/05/28 14:03:46;;;;;;;3.13;1.50;;;17.10;93.30;;;;;;10167466;29;20277;-88
2022/05/28 14:08:51;;;;;;;1.93;1.30;;;18.50;90.70;;;;;;10166487;29;20267;-86
2022/05/28 14:14:25;;;;;;;2.17;1.27;;;16.20;96.50;;;;;;10165894;29;20702;-86
2022/05/28 14:19:50;;;;;;;1.60;1.40;;;17.50;93.60;;;;;;10167018;29;20235;-87
2022/05/28 14:24:54;;;;;;;4.03;1.60;;;18.40;90.40;;;;;;10167595;29;20330;-87
2022/05/28 14:30:18;;;;;;;1.97;1.73;;;18.10;90.60;;;;;;10167087;29;20239;-87
2022/05/28 14:35:38;;;;;;;3.93;1.53;;;18.50;90.40;;;;;;10171250;29;20283;-87
2022/05/28 14:40:49;;;;;;;4.93;2.37;;;17.80;89.60;;;;;;10184820;29;20239;-86
2022/05/28 14:46:03;;;;;;;3.83;1.80;;;18.40;87.80;;;;;;10171308;29;20258;-86
2022/05/28 14:51:06;;;;;;;3.60;1.40;;;16.80;91.30;;;;;;10174488;29;20891;-86
2022/05/28 14:56:25;;;;;;;7.13;2.37;;;15.10;94.50;;;;;;10173422;29;20239;-86
2022/05/28 15:01:32;;;;;;;2.60;1.73;;;12.40;99.90;;;;;;10170821;29;20303;-87
2022/05/28 15:06:43;;;;;;;2.30;1.77;;;14.50;99.90;;;;;;10169863;29;20271;-86
2022/05/28 15:11:46;;;;;;;2.37;1.50;;;16.00;99.90;;;;;;10172322;29;20662;-86
2022/05/28 15:16:49;;;;;;;1.83;1.00;;;17.00;96.80;;;;;;10171761;29;20242;-86
2022/05/28 15:21:51;;;;;;;2.80;1.90;;;18.20;92.60;;;;;;10186084;29;20267;-92
2022/05/28 15:26:54;;;;;;;2.63;1.00;;;18.40;92.70;;;;;;10171806;29;20255;-88
2022/05/28 15:31:58;;;;;;;7.93;1.40;;;16.40;98.40;;;;;;10172635;29;20224;-89
2022/05/28 15:42:31;;;;;;;1.47;1.10;;;15.60;99.90;;;;;;10176495;29;20277;-88
2022/05/28 15:47:34;;;;;;;4.17;1.40;;;16.60;99.80;;;;;;10189588;29;20329;-87
2022/05/28 15:52:37;;;;;;;7.93;1.40;;;16.50;99.90;;;;;;10181649;29;20693;-86
2022/05/28 15:57:45;;;;;;;1.90;1.00;;;15.10;99.90;;;;;;10171787;29;20236;-86
2022/05/28 16:02:48;;;;;;;1.67;1.17;;;16.70;99.90;;;;;;10170331;29;20673;-86
2022/05/28 16:08:10;;;;;;;2.60;1.50;;;17.10;98.80;;;;;;10168930;29;20639;-87
2022/05/28 16:13:13;;;;;;;2.67;1.50;;;16.10;99.90;;;;;;10172998;29;20270;-86
2022/05/28 16:18:16;;;;;;;2.50;1.53;;;16.10;99.90;;;;;;10169821;29;20291;-86
2022/05/28 16:23:18;;;;;;;5.00;1.87;;;17.20;98.60;;;;;;10168602;29;20242;-87
2022/05/28 16:28:21;;;;;;;3.87;1.50;;;17.50;97.80;;;;;;10174424;29;20254;-86
2022/05/28 16:33:23;;;;;;;3.90;1.90;;;17.20;97.00;;;;;;10205694;29;20325;-86
2022/05/28 16:38:26;;;;;;;4.93;1.67;;;17.30;98.30;;;;;;9836451;29;9999738;-87
2022/05/28 16:43:28;;;;;;;3.33;1.93;;;16.60;99.10;;;;;;10170055;29;20239;-87
2022/05/28 16:48:32;;;;;;;5.07;1.80;;;16.80;99.10;;;;;;10167129;29;20644;-86
2022/05/28 16:53:34;;;;;;;4.13;2.13;;;16.60;99.70;;;;;;10173240;29;20234;-87
2022/05/28 16:58:37;;;;;;;1.70;1.60;;;17.10;97.20;;;;;;10166340;29;20357;-87
2022/05/28 17:03:39;;;;;;;5.63;1.73;;;16.90;97.60;;;;;;10169379;29;20275;-87
2022/05/28 17:08:43;;;;;;;3.23;1.90;;;16.60;98.30;;;;;;10165902;29;20257;-87
2022/05/28 17:13:46;;;;;;;11.37;2.67;;;16.20;99.50;;;;;;10140700;29;20240;-86
2022/05/28 17:18:49;;;;;;;2.60;2.40;;;15.60;99.90;;;;;;10156649;29;20234;-87
2022/05/28 17:23:52;;;;;;;4.20;2.50;;;16.30;98.70;;;;;;10142655;29;20266;-86
2022/05/28 17:28:55;;;;;;;2.83;2.13;;;16.30;98.10;;;;;;10175138;29;20310;-87
2022/05/28 17:33:58;;;;;;;7.73;2.60;;;16.40;98.10;;;;;;10166290;29;20232;-86
2022/05/28 17:39:00;;;;;;;6.50;2.23;;;14.70;99.90;;;;;;10162936;29;20245;-86
2022/05/28 17:44:05;;;;;;;6.10;3.03;;;14.50;99.90;;;;;;10165232;29;20295;-86
2022/05/28 17:49:08;;;;;;;8.37;3.53;;;14.50;99.90;;;;;;10162686;29;20573;-86
2022/05/28 17:54:11;;;;;;;6.10;3.47;;;14.60;99.90;;;;;;10194545;29;20302;-85
2022/05/28 17:59:13;;;;;;;5.87;3.23;;;15.10;99.90;;;;;;10163385;29;20298;-86
2022/05/28 18:04:30;;;;;;;5.67;2.10;;;15.70;99.90;;;;;;10194682;29;20330;-86
2022/05/28 18:09:32;;;;;;;7.70;2.53;;;15.40;99.50;;;;;;10130597;29;20319;-85
2022/05/28 18:14:34;;;;;;;9.70;3.77;;;14.60;99.90;;;;;;10157674;29;20283;-85
2022/05/28 18:19:40;;;;;;;8.40;2.70;;;14.10;99.90;;;;;;10176437;29;20943;-86
2022/05/28 18:24:44;;;;;;;11.27;5.57;;;13.60;99.90;;;;;;10193665;29;20268;-85
2022/05/28 18:29:47;;;;;;;21.90;11.30;;;13.20;99.90;;;;;;10179517;29;20720;-85
2022/05/28 18:34:49;;;;;;;9.60;2.80;;;13.20;99.90;;;;;;10177536;29;20652;-85
2022/05/28 18:39:52;;;;;;;7.87;2.77;;;13.00;99.90;;;;;;10155353;29;20630;-85
2022/05/28 18:44:54;;;;;;;7.10;3.30;;;12.50;99.90;;;;;;10161881;29;20235;-85
2022/05/28 18:49:57;;;;;;;6.17;2.70;;;12.50;99.90;;;;;;10179749;29;20262;-84
2022/05/28 18:54:59;;;;;;;10.90;5.57;;;12.50;99.90;;;;;;10177055;29;20247;-85
2022/05/28 19:00:06;;;;;;;7.97;2.40;;;12.30;99.90;;;;;;10174115;29;20231;-85
2022/05/28 19:05:08;;;;;;;8.77;4.17;;;12.60;99.90;;;;;;10190812;29;20275;-85
2022/05/28 19:10:11;;;;;;;5.93;3.40;;;12.40;99.90;;;;;;10171469;29;20239;-85
2022/05/28 19:15:17;;;;;;;7.43;2.10;;;12.10;99.90;;;;;;10173134;29;20231;-85
2022/05/28 19:20:22;;;;;;;5.57;1.83;;;11.50;99.90;;;;;;10170265;29;20242;-86
2022/05/28 19:30:45;;;;;;;6.27;2.60;;;11.00;99.90;;;;;;10190173;29;20262;-86
2022/05/28 19:35:48;;;;;;;8.73;2.80;;;11.00;99.90;;;;;;10170915;29;20751;-86
2022/05/28 19:40:52;;;;;;;7.73;3.53;;;10.90;99.90;;;;;;10184519;29;20212;-86
2022/05/28 19:45:57;;;;;;;10.23;2.00;;;10.80;99.90;;;;;;10199226;29;20314;-85
2022/05/28 19:51:01;;;;;;;5.30;1.87;;;10.80;99.90;;;;;;10173311;29;20240;-85
2022/05/28 19:56:04;;;;;;;5.10;2.27;;;10.80;99.90;;;;;;10168943;29;20233;-85
2022/05/28 20:01:07;;;;;;;5.70;1.53;;;10.80;99.90;;;;;;10166978;29;20309;-85
2022/05/28 20:06:09;;;;;;;5.97;2.20;;;10.90;99.90;;;;;;10168885;29;20269;-84
2022/05/28 20:11:14;;;;;;;5.80;2.13;;;11.40;99.90;;;;;;9826634;29;10000039;-85
2022/05/28 20:16:17;;;;;;;5.50;1.50;;;10.80;99.90;;;;;;10196411;29;20288;-85
2022/05/28 20:21:19;;;;;;;2.77;1.27;;;11.30;99.90;;;;;;10185421;29;20241;-84
2022/05/28 20:26:22;;;;;;;3.20;2.50;;;11.10;99.90;;;;;;10189140;29;20596;-86
2022/05/28 20:31:25;;;;;;;4.13;0.90;;;12.00;99.90;;;;;;10150368;29;20223;-85
2022/05/28 20:36:31;;;;;;;3.17;1.17;;;11.40;99.90;;;;;;10164581;29;20242;-84
2022/05/28 20:41:35;;;;;;;2.17;1.20;;;11.20;99.90;;;;;;10159478;29;20285;-85
2022/05/28 20:46:41;;;;;;;0.90;0.73;;;11.10;99.90;;;;;;10147887;29;20262;-86
2022/05/28 20:51:46;;;;;;;1.97;0.90;;;11.70;99.90;;;;;;10165297;29;20762;-85
2022/05/28 20:56:50;;;;;;;2.03;0.90;;;11.10;99.90;;;;;;10167121;29;20275;-86
2022/05/28 21:01:52;;;;;;;1.93;1.20;;;11.00;99.90;;;;;;10199518;29;20241;-86
2022/05/28 21:06:57;;;;;;;4.47;1.50;;;11.10;99.90;;;;;;10169571;29;20266;-87
2022/05/28 21:11:59;;;;;;;4.53;1.77;;;11.30;99.90;;;;;;10166115;29;20644;-86
2022/05/28 21:17:02;;;;;;;6.83;2.53;;;12.20;99.90;;;;;;10190758;29;20239;-87
2022/05/28 21:22:06;;;;;;;2.97;1.43;;;12.70;99.90;;;;;;10190770;29;20238;-85
2022/05/28 21:32:32;;;;;;;4.30;1.40;;;14.30;99.90;;;;;;10164960;29;20316;-86
2022/05/28 21:37:34;;;;;;;5.17;1.10;;;14.50;99.90;;;;;;10176255;29;20704;-86
2022/05/28 21:42:37;;;;;;;2.33;1.53;;;14.30;99.90;;;;;;10168365;29;20232;-85
2022/05/28 21:47:44;;;;;;;8.50;1.27;;;15.30;99.90;;;;;;10186336;29;20300;-85
2022/05/28 21:52:48;;;;;;;1.10;0.60;;;13.70;99.90;;;;;;10201742;29;20651;-87
2022/05/28 21:57:50;;;;;;;1.30;1.10;;;13.20;99.90;;;;;;10186795;29;20235;-87
2022/05/28 22:02:55;;;;;;;5.20;1.43;;;13.30;99.90;;;;;;10197933;29;20299;-87
2022/05/28 22:07:58;;;;;;;3.00;1.13;;;14.20;99.90;;;;;;10176200;29;20255;-87
2022/05/28 22:13:01;;;;;;;2.87;1.60;;;13.30;99.90;;;;;;10195609;29;20243;-86
2022/05/28 22:18:06;;;;;;;2.70;1.27;;;14.30;99.90;;;;;;10181042;29;20621;-87
2022/05/28 22:23:08;;;;;;;2.17;1.30;;;13.50;99.90;;;;;;10177980;29;20659;-87
2022/05/28 22:28:11;;;;;;;4.80;1.77;;;14.00;99.90;;;;;;10149887;29;20314;-87
2022/05/28 22:33:13;;;;;;;2.20;1.77;;;14.80;99.90;;;;;;10205005;29;20667;-86
2022/05/28 22:38:18;;;;;;;2.43;1.60;;;14.60;99.90;;;;;;10174936;29;20217;-86
2022/05/28 22:43:22;;;;;;;2.03;1.93;;;14.10;99.90;;;;;;10184720;29;20239;-87
2022/05/28 22:48:32;;;;;;;5.00;2.33;;;15.20;99.90;;;;;;10191669;29;20738;-86
2022/05/28 22:53:39;;;;;;;3.40;2.13;;;15.90;99.90;;;;;;10210227;29;20239;-87
2022/05/28 22:58:43;;;;;;;2.37;1.83;;;15.90;99.90;;;;;;10152085;29;20262;-87
2022/05/28 23:03:51;;;;;;;4.60;1.97;;;15.40;99.90;;;;;;10169799;29;20708;-86
2022/05/28 23:08:54;;;;;;;6.37;1.77;;;14.20;99.90;;;;;;10172626;29;20250;-87
2022/05/28 23:13:56;;;;;;;10.07;2.60;;;14.10;99.90;;;;;;10172073;29;20672;-87
2022/05/28 23:19:00;;;;;;;2.93;2.07;;;14.50;99.90;;;;;;10171869;29;20235;-87
2022/05/28 23:29:26;;;;;;;8.30;2.00;;;14.70;99.90;;;;;;10174934;29;20256;-86
2022/05/28 23:34:33;;;;;;;8.53;3.53;;;14.60;99.90;;;;;;10172882;29;20223;-87
2022/05/28 23:39:37;;;;;;;3.03;2.10;;;14.60;99.90;;;;;;10172703;29;20577;-87
2022/05/28 23:44:39;;;;;;;3.43;1.97;;;14.80;99.90;;;;;;10172569;29;20604;-87
2022/05/28 23:49:45;;;;;;;6.47;2.33;;;13.80;99.90;;;;;;10173039;29;20743;-87
2022/05/28 23:54:49;;;;;;;5.53;1.83;;;12.90;99.90;;;;;;10171651;29;20239;-87
2022/05/28 23:59:51;;;;;;;4.87;2.17;;;13.20;99.90;;;;;;10172412;29;20247;-87
